Flight Track Log - Related Links

Times and Time Zones

All times are in EDT time to prevent confusion due to time zone crossing. See the UAL3776 flight status page for this flight to view local times or setup timezone preferences in your user account.

Time Position Orientation Groundspeed Altitude Reporting Facility
EDT Latitude Longitude Course Direction KTS MPH feet Rate Location/Type
Thu 11:48:58 AM 25.7983 -80.2675 83° East 159 183 900  Level Miami Center
Thu 11:50:00 AM 25.9107 -80.3152 347° North  Level FlightAware Approximate
Thu 11:50:42 AM 25.8114 -80.1503 347° North 261 300 4,000  Level Miami Center
Thu 11:51:38 AM 25.8697 -80.1564 355° North 291 335 6,300 2,074 Climbing Miami Center
Thu 11:52:03 AM 25.9008 -80.1711 337° Northwest 286 329 6,800 1,574 Climbing Miami Center
Thu 11:52:39 AM 25.9356 -80.2022 321° Northwest 292 336 7,900 2,100 Climbing Miami Center
Thu 11:53:03 AM 25.9686 -80.2217 332° Northwest 307 353 8,900 1,857 Climbing Miami Center
Thu 11:54:03 AM 26.0364 -80.2744 325° Northwest 319 367 10,500 1,800 Climbing Miami Center
Thu 11:55:03 AM 26.1122 -80.3344 325° Northwest 326 375 12,500 1,850 Climbing Miami Center
Thu 11:56:03 AM 26.1900 -80.3967 324° Northwest 332 382 14,200 1,850 Climbing Miami Center
Thu 11:57:03 AM 26.2764 -80.4525 330° Northwest 340 391 16,200 1,750 Climbing Miami Center
Thu 11:58:03 AM 26.3589 -80.4922 337° Northwest 354 407 17,700 1,550 Climbing Miami Center
Thu 11:59:03 AM 26.4661 -80.5442 337° Northwest 376 433 19,300 1,600 Climbing Miami Center
Thu 12:00:03 PM 26.5569 -80.5867 337° Northwest 382 440 20,900 1,550 Climbing Miami Center
Thu 12:01:03 PM 26.6664 -80.6411 336° Northwest 382 440 22,400 1,350 Climbing Miami Center
Thu 12:02:03 PM 26.7572 -80.6836 337° Northwest 389 448 23,600 1,300 Climbing Miami Center
Thu 12:03:03 PM 26.8772 -80.7247 343° North 395 455 25,000 1,250 Climbing Miami Center
Thu 12:04:03 PM 26.9847 -80.7656 341° North 400 460 26,100 1,150 Climbing Miami Center
Thu 12:05:03 PM 27.0817 -80.8017 342° North 400 460 27,300 1,050 Climbing Miami Center
Thu 12:06:03 PM 27.1914 -80.8403 343° North 406 467 28,200 1,000 Climbing Miami Center
Thu 12:07:03 PM 27.3156 -80.8819 343° North 411 473 29,300 1,050 Climbing Miami Center
Thu 12:08:03 PM 27.4292 -80.9233 342° North 417 480 30,300 1,000 Climbing Miami Center
Thu 12:09:03 PM 27.5364 -80.9647 341° North 417 480 31,300 1,000 Climbing Miami Center
Thu 12:10:03 PM 27.6481 -81.0039 343° North 417 480 32,300 1,000 Climbing Miami Center
Thu 12:11:03 PM 27.7575 -81.0453 341° North 417 480 33,300 1,000 Climbing Miami Center
Thu 12:12:03 PM 27.8669 -81.0844 342° North 417 480 34,300 850 Climbing Miami Center
Thu 12:13:03 PM 27.9722 -81.1261 341° North 405 466 35,000 350 Climbing Miami Center
Thu 12:14:03 PM 28.0794 -81.1656 342° North 400 460 35,000  Level Miami Center
Thu 12:15:03 PM 28.1869 -81.2047 342° North 400 460 35,000  Level Miami Center
Thu 12:16:03 PM 28.2839 -81.2392 343° North 400 460 35,000  Level Miami Center
Thu 12:17:03 PM 28.4078 -81.2819 343° North 406 467 35,000  Level Miami Center
Thu 12:18:03 PM 28.5169 -81.3264 340° North 411 473 35,000  Level Miami Center
Thu 12:19:03 PM 28.6125 -81.3442 351° North 417 480 35,000  Level Miami Center
Thu 12:22:40 PM 29.0553 -81.3867 355° North 422 486 35,000  Level Jacksonville Center
Thu 12:23:40 PM 29.1744 -81.3992 355° North 417 480 35,000  Level Jacksonville Center
Thu 12:24:40 PM 29.2956 -81.4092 356° North 417 480 35,000  Level Jacksonville Center
Thu 12:25:40 PM 29.4167 -81.4119 359° North 429 494 35,000  Level Jacksonville Center
Thu 12:26:40 PM 29.5503 -81.4147 359° North 429 494 35,000 50 Level Jacksonville Center
Thu 12:27:40 PM 29.6714 -81.4153 360° North 429 494 35,100 650 Climbing Jacksonville Center
Thu 12:28:40 PM 29.7819 -81.4186 359° North 429 494 36,300 950 Climbing Jacksonville Center
Thu 12:29:40 PM 29.8967 -81.4167 North 429 494 37,000 350 Climbing Jacksonville Center
Thu 12:30:40 PM 30.0136 -81.4197 359° North 417 480 37,000  Level Jacksonville Center
Thu 12:31:40 PM 30.1328 -81.4203 360° North 417 480 37,000  Level Jacksonville Center
Thu 12:32:40 PM 30.2497 -81.4208 360° North 417 480 37,000  Level Jacksonville Center
Thu 12:33:40 PM 30.3686 -81.4239 359° North 417 480 37,000  Level Jacksonville Center
Thu 12:34:40 PM 30.4856 -81.4269 359° North 422 486 37,000  Level Jacksonville Center
Thu 12:35:40 PM 30.6067 -81.4275 360° North 422 486 37,000  Level Jacksonville Center
Thu 12:36:40 PM 30.7258 -81.4281 360° North 422 486 37,000  Level Jacksonville Center
Thu 12:37:40 PM 30.8447 -81.4311 359° North 422 486 37,000  Level Jacksonville Center
Thu 12:38:40 PM 30.9639 -81.4342 359° North 422 486 37,000  Level Jacksonville Center
Thu 12:39:39 PM 31.0869 -81.4347 360° North 422 486 37,000  Level Jacksonville Center
Thu 12:40:40 PM 31.2078 -81.3914 17° North 431 496 37,000  Level Jacksonville Center
Thu 12:41:40 PM 31.3281 -81.3286 24° Northeast 446 513 37,000  Level Jacksonville Center
Thu 12:42:40 PM 31.4481 -81.2536 28° Northeast 446 513 37,000  Level Jacksonville Center
Thu 12:43:40 PM 31.5664 -81.1906 24° Northeast 446 513 37,000  Level Jacksonville Center
Thu 12:44:40 PM 31.6719 -81.1300 26° Northeast 461 531 37,000  Level Jacksonville Center
Thu 12:45:40 PM 31.7983 -81.0569 26° Northeast 461 531 37,000  Level Jacksonville Center
Thu 12:46:40 PM 31.9061 -80.9983 25° Northeast 461 531 37,000  Level Jacksonville Center
Thu 12:47:40 PM 32.0383 -80.9222 26° Northeast 467 537 37,000  Level Jacksonville Center
Thu 12:48:40 PM 32.1461 -80.8658 24° Northeast 467 537 37,000  Level Jacksonville Center
Thu 12:49:40 PM 32.2764 -80.7942 25° Northeast 462 532 37,000  Level Jacksonville Center
Thu 12:50:40 PM 32.3964 -80.7250 26° Northeast 462 532 37,000  Level Jacksonville Center
Thu 12:51:40 PM 32.4997 -80.6658 26° Northeast 462 532 37,000  Level Jacksonville Center
Thu 12:52:40 PM 32.6217 -80.5964 26° Northeast 462 532 37,000  Level Jacksonville Center
Thu 12:53:40 PM 32.7436 -80.5264 26° Northeast 467 537 37,000  Level Jacksonville Center
Thu 12:54:40 PM 32.8656 -80.4589 25° Northeast 472 543 37,000  Level Jacksonville Center
Thu 12:55:40 PM 32.9994 -80.3786 27° Northeast 485 558 37,000  Level Jacksonville Center
Thu 12:56:40 PM 33.1192 -80.3083 26° Northeast 479 551 37,000  Level Jacksonville Center
Thu 12:57:40 PM 33.2347 -80.2478 24° Northeast 485 558 37,000  Level Jacksonville Center
Thu 12:58:40 PM 33.3544 -80.1772 26° Northeast 479 551 37,000  Level Jacksonville Center
Thu 12:59:40 PM 33.4739 -80.1061 26° Northeast 479 551 37,000  Level Jacksonville Center
Thu 01:00:40 PM 33.5933 -80.0353 26° Northeast 479 551 37,000  Level Jacksonville Center
Thu 01:01:40 PM 33.7147 -79.9664 25° Northeast 479 551 37,000  Level Jacksonville Center
Thu 01:02:40 PM 33.8361 -79.8922 27° Northeast 479 551 37,000  Level Jacksonville Center
Thu 01:03:40 PM 33.9578 -79.8231 25° Northeast 479 551 37,000  Level Jacksonville Center
Thu 01:04:40 PM 34.0811 -79.7511 26° Northeast 479 551 37,000  Level Jacksonville Center
Thu 01:05:40 PM 34.2042 -79.6736 28° Northeast 479 551 37,000  Level Jacksonville Center
Thu 01:07:02 PM 34.3850 -79.5781 24° Northeast 474 545 37,000  Level Washington Center
Thu 01:08:02 PM 34.5122 -79.5161 22° Northeast 474 545 37,000  Level Washington Center
Thu 01:09:02 PM 34.6375 -79.4464 25° Northeast 479 551 37,000  Level Washington Center
Thu 01:10:02 PM 34.7628 -79.3817 23° Northeast 484 557 37,000  Level Washington Center
Thu 01:11:02 PM 34.8881 -79.3142 24° Northeast 484 557 37,000 -500 Level Washington Center
Thu 01:12:02 PM 35.0153 -79.2464 24° Northeast 484 557 36,000 -1,000 Descending Washington Center
Thu 01:13:02 PM 35.1447 -79.1786 23° Northeast 490 564 35,000 -1,000 Descending Washington Center
Thu 01:14:02 PM 35.2761 -79.1106 23° Northeast 495 570 34,000 -1,000 Descending Washington Center
Thu 01:15:02 PM 35.4075 -79.0400 24° Northeast 505 581 33,000 -1,050 Descending Washington Center
Thu 01:16:02 PM 35.5386 -78.9717 23° Northeast 505 581 31,900 -1,050 Descending Washington Center
Thu 01:17:02 PM 35.6681 -78.8978 25° Northeast 505 581 30,900 -1,000 Descending Washington Center
Thu 01:18:02 PM 35.7994 -78.8289 23° Northeast 505 581 29,900 -950 Descending Washington Center
Thu 01:19:02 PM 35.9306 -78.7575 24° Northeast 505 581 29,000 -500 Descending Washington Center
Thu 01:20:02 PM 36.0322 -78.6972 26° Northeast 505 581 28,900 -600 Descending Washington Center
Thu 01:21:02 PM 36.1722 -78.6178 25° Northeast 505 581 27,800 -950 Descending Washington Center
Thu 01:22:02 PM 36.3011 -78.5456 24° Northeast 505 581 27,000 -400 Descending Washington Center
Thu 01:23:02 PM 36.4281 -78.4731 25° Northeast 505 581 27,000  Level Washington Center
Thu 01:24:02 PM 36.5550 -78.4000 25° Northeast 505 581 27,000  Level Washington Center
Thu 01:25:02 PM 36.6925 -78.3194 25° Northeast 499 574 27,000  Level Washington Center
Thu 01:26:02 PM 36.8194 -78.2461 25° Northeast 488 562 27,000  Level Washington Center
Thu 01:27:02 PM 36.9461 -78.1725 25° Northeast 488 562 27,000  Level Washington Center
Thu 01:28:02 PM 37.0731 -78.0961 26° Northeast 488 562 27,000  Level Washington Center
Thu 01:29:02 PM 37.2017 -78.0219 25° Northeast 488 562 27,000 -850 Level Washington Center
Thu 01:30:02 PM 37.3306 -77.9478 25° Northeast 488 562 25,300 -1,850 Descending Washington Center
Thu 01:31:02 PM 37.4614 -77.8708 25° Northeast 494 568 23,300 -1,650 Descending Washington Center
Thu 01:32:02 PM 37.5900 -77.7933 26° Northeast 499 574 22,000 -1,950 Descending Washington Center
Thu 01:33:02 PM 37.7144 -77.7208 25° Northeast 499 574 19,400 -2,550 Descending Washington Center
Thu 01:34:02 PM 37.8303 -77.6531 25° Northeast 476 548 16,900 -2,500 Descending Washington Center
Thu 01:35:02 PM 37.9375 -77.5903 25° Northeast 448 516 14,400 -2,300 Descending Washington Center
Thu 01:36:02 PM 38.0386 -77.5347 23° Northeast 421 484 12,300 -2,150 Descending Washington Center
Thu 01:37:02 PM 38.1292 -77.4817 25° Northeast 376 433 10,100 -1,500 Descending Washington Center
Thu 01:38:02 PM 38.2006 -77.4544 17° North 328 377 9,300 -1,400 Descending Washington Center
Thu 01:39:02 PM 38.2756 -77.4536 360° North 287 330 7,300 -1,750 Descending Washington Center
Thu 01:40:02 PM 38.3528 -77.4503 North 274 315 5,800 -1,500 Descending Washington Center
Thu 01:41:02 PM 38.4258 -77.4494 North 268 308 4,300 -900 Descending Washington Center
Thu 01:42:02 PM 38.4989 -77.4486 North 263 303 4,000 -150 Descending Washington Center
Thu 01:43:02 PM 38.5697 -77.4478 North 257 296 4,000  Level Washington Center
Thu 01:44:02 PM 38.6406 -77.4442 North 251 289 4,000  Level Washington Center
Thu 01:44:40 PM 38.6833 -77.4333 11° North 249 287 4,000 -122 Level Potomac TRACON
Thu 01:45:40 PM 38.7667 -77.4333 360° North 241 277 3,800 -645 Descending Potomac TRACON
Thu 01:46:41 PM 38.8167 -77.4333 360° North 186 214 2,700 -1,041 Descending Potomac TRACON
Thu 01:47:41 PM 38.8667 -77.4333 360° North 164 189 1,700 -950 Descending Potomac TRACON
Thu 01:48:41 PM 38.9000 -77.4333 360° North 140 161 800 -900 Descending Potomac TRACON
Thu 01:50:00 PM 38.9474 -77.4599 North  Level Estimated
Thu 01:57:00 PM 38.9474 -77.4599 191° South  Level Estimated
Thu 01:58:00 PM 38.9474 -77.4599 191° South  Level Estimated
Thu 01:59:00 PM 38.9474 -77.4599 191° South  Level Estimated
Thu 02:00:00 PM 38.9474 -77.4599 191° South  Level Estimated

Login

Don't have an account? Register now (free) for customized features, flight alerts, and more!